Time;durP1;ratioP1;P1;durP2;ratioP2;P2;SDS_P1;SDS_P2;PMS_P1;PMS_P2;Temp;Humidity;BMP_temperature;BMP_pressure;BME280_temperature;BME280_humidity;BME280_pressure;Samples;Min_cycle;Max_cycle;Signal;HPM_P1;HPM_P2
2022/12/24 00:01:05;;;;;;;22.05;16.30;;;11.60;99.90;;;;;;4965393;28;20044;-76
2022/12/24 00:03:33;;;;;;;20.63;13.02;;;11.60;99.90;;;;;;4948086;28;20047;-77
2022/12/24 00:06:09;;;;;;;17.42;12.38;;;11.40;99.90;;;;;;4960384;28;20125;-77
2022/12/24 00:08:37;;;;;;;14.97;11.57;;;11.40;99.90;;;;;;4955829;28;20043;-76
2022/12/24 00:11:04;;;;;;;19.85;11.80;;;11.40;99.90;;;;;;4953627;28;20382;-76
2022/12/24 00:13:32;;;;;;;17.67;13.45;;;11.30;99.90;;;;;;4966374;28;20039;-76
2022/12/24 00:16:00;;;;;;;20.23;13.27;;;11.30;99.90;;;;;;4955528;28;20070;-76
2022/12/24 00:18:27;;;;;;;20.52;13.45;;;11.20;99.90;;;;;;4965731;28;20093;-76
2022/12/24 00:20:55;;;;;;;18.48;14.27;;;11.20;99.90;;;;;;4965471;28;20504;-76
2022/12/24 00:23:23;;;;;;;20.13;13.00;;;11.20;99.90;;;;;;4974885;28;20070;-76
2022/12/24 00:25:50;;;;;;;20.23;14.95;;;11.10;99.90;;;;;;4968457;28;20748;-76
2022/12/24 00:28:18;;;;;;;21.67;14.05;;;11.10;99.90;;;;;;4958157;28;20122;-78
2022/12/24 00:30:45;;;;;;;21.17;14.05;;;11.10;99.90;;;;;;4965558;28;20780;-77
2022/12/24 00:33:13;;;;;;;17.25;12.95;;;11.10;99.90;;;;;;4954944;28;20051;-77
2022/12/24 00:35:42;;;;;;;22.90;15.05;;;11.10;99.90;;;;;;4978525;28;20102;-78
2022/12/24 00:38:09;;;;;;;21.38;15.45;;;11.10;99.90;;;;;;4961770;28;20130;-77
2022/12/24 00:40:37;;;;;;;19.98;15.65;;;11.00;99.90;;;;;;4967561;28;20055;-78
2022/12/24 00:43:17;;;;;;;18.13;14.63;;;11.00;99.90;;;;;;4948788;29;20055;-79
2022/12/24 00:45:45;;;;;;;20.80;13.95;;;11.00;99.90;;;;;;4959367;28;20061;-77
2022/12/24 00:48:13;;;;;;;17.23;12.45;;;11.10;99.90;;;;;;4964512;28;20081;-79
2022/12/24 00:50:40;;;;;;;22.67;14.98;;;11.00;99.90;;;;;;4957388;28;20050;-79
2022/12/24 00:53:07;;;;;;;25.45;17.83;;;11.00;99.90;;;;;;4962532;28;20051;-78
2022/12/24 00:55:35;;;;;;;25.52;17.05;;;10.80;99.90;;;;;;4967697;28;20171;-77
2022/12/24 00:58:02;;;;;;;17.20;12.25;;;10.60;99.90;;;;;;4962365;28;20051;-79
2022/12/24 01:00:30;;;;;;;14.32;10.82;;;10.50;99.90;;;;;;4968180;28;20134;-78
2022/12/24 01:02:57;;;;;;;13.05;9.90;;;10.50;99.90;;;;;;4964159;28;20043;-78
2022/12/24 01:05:25;;;;;;;16.02;11.48;;;10.50;99.90;;;;;;4958511;28;20051;-78
2022/12/24 01:07:53;;;;;;;15.25;11.90;;;10.50;99.90;;;;;;4961509;28;20046;-78
2022/12/24 01:10:21;;;;;;;14.07;11.38;;;10.50;99.90;;;;;;4944285;28;20922;-79
2022/12/24 01:12:48;;;;;;;14.88;10.30;;;10.50;99.90;;;;;;4954690;28;20530;-78
2022/12/24 01:15:16;;;;;;;19.02;11.95;;;10.60;99.90;;;;;;4964105;28;20035;-78
2022/12/24 01:17:44;;;;;;;16.45;9.63;;;10.60;99.90;;;;;;4969445;28;20567;-78
2022/12/24 01:20:14;;;;;;;16.35;11.63;;;10.60;99.90;;;;;;4969592;28;20509;-78
2022/12/24 01:22:42;;;;;;;13.45;10.45;;;10.70;99.90;;;;;;4960742;28;20062;-79
2022/12/24 01:25:09;;;;;;;12.82;10.95;;;10.70;99.90;;;;;;4970482;28;20066;-78
2022/12/24 01:27:37;;;;;;;15.43;10.73;;;10.70;99.90;;;;;;4970680;28;20054;-78
2022/12/24 01:30:06;;;;;;;14.73;10.32;;;10.70;99.90;;;;;;4964871;28;20077;-78
2022/12/24 01:32:34;;;;;;;15.43;10.60;;;10.70;99.90;;;;;;4965462;28;20555;-78
2022/12/24 01:35:02;;;;;;;12.60;9.48;;;10.70;99.90;;;;;;4945099;28;20093;-78
2022/12/24 01:37:30;;;;;;;12.25;10.15;;;10.80;99.90;;;;;;4962693;28;20129;-78
2022/12/24 01:45:36;;;;;;;14.80;9.55;;;10.80;99.90;;;;;;4961954;28;20458;-77
2022/12/24 01:48:08;;;;;;;14.38;10.32;;;10.80;99.90;;;;;;4965031;28;20039;-77
2022/12/24 01:50:35;;;;;;;12.73;9.02;;;10.80;99.90;;;;;;4975840;28;20523;-77
2022/12/24 01:53:04;;;;;;;11.82;9.52;;;10.80;99.90;;;;;;4952856;28;20565;-77
2022/12/24 01:55:32;;;;;;;14.38;9.85;;;10.70;99.90;;;;;;4963616;28;20486;-78
2022/12/24 01:58:01;;;;;;;15.20;9.68;;;10.80;99.90;;;;;;4970336;28;20130;-78
2022/12/24 02:00:29;;;;;;;14.50;10.10;;;10.80;99.90;;;;;;4958827;28;20050;-77
2022/12/24 02:02:57;;;;;;;12.75;9.07;;;10.80;99.90;;;;;;4965772;28;20039;-78
2022/12/24 02:05:27;;;;;;;13.90;9.55;;;10.80;99.90;;;;;;4969273;28;20505;-78
2022/12/24 02:07:55;;;;;;;12.00;8.55;;;10.70;99.90;;;;;;4961392;28;20043;-78
2022/12/24 02:10:23;;;;;;;11.02;7.57;;;10.70;99.90;;;;;;4944744;28;20133;-77
2022/12/24 02:12:51;;;;;;;11.43;8.23;;;10.70;99.90;;;;;;4959412;28;20054;-78
2022/12/24 02:15:20;;;;;;;10.68;7.88;;;10.70;99.90;;;;;;4961672;28;20043;-78
2022/12/24 02:18:06;;;;;;;9.25;6.88;;;10.70;99.90;;;;;;4957495;28;20051;-78
2022/12/24 02:20:48;;;;;;;9.75;7.38;;;10.70;99.90;;;;;;4961986;28;20134;-78
2022/12/24 02:23:31;;;;;;;10.15;6.80;;;10.60;99.90;;;;;;4968414;28;20062;-77
2022/12/24 02:26:33;;;;;;;8.57;7.05;;;10.50;99.90;;;;;;4950604;28;20067;-77
2022/12/24 02:29:13;;;;;;;9.40;5.95;;;10.50;99.90;;;;;;4953240;28;20051;-78
2022/12/24 02:31:48;;;;;;;7.32;5.20;;;10.40;99.90;;;;;;4957878;28;20106;-77
2022/12/24 02:34:46;;;;;;;10.32;7.68;;;10.40;99.90;;;;;;4978425;28;20065;-77
2022/12/24 02:37:21;;;;;;;8.45;7.10;;;10.40;99.90;;;;;;4952796;28;20477;-77
2022/12/24 02:39:53;;;;;;;9.05;6.45;;;10.40;99.90;;;;;;4957195;28;20103;-77
2022/12/24 02:42:25;;;;;;;9.98;6.00;;;10.40;99.90;;;;;;4954589;28;20043;-77
2022/12/24 02:45:00;;;;;;;7.93;5.78;;;10.50;99.90;;;;;;4971360;28;20054;-77
2022/12/24 02:47:29;;;;;;;7.85;5.55;;;10.50;99.90;;;;;;4958650;28;20039;-77
2022/12/24 02:50:00;;;;;;;6.57;5.57;;;10.50;99.90;;;;;;4956080;28;20122;-77
2022/12/24 02:52:33;;;;;;;8.40;5.43;;;10.50;99.90;;;;;;4965381;28;20409;-77
2022/12/24 02:55:12;;;;;;;7.03;5.30;;;10.50;99.90;;;;;;4968783;28;20043;-77
2022/12/24 02:57:42;;;;;;;6.82;4.70;;;10.50;99.90;;;;;;4963155;28;20070;-77
2022/12/24 03:00:15;;;;;;;7.25;5.40;;;10.50;99.90;;;;;;4957535;28;20050;-78
2022/12/24 03:03:07;;;;;;;9.90;5.45;;;10.50;99.90;;;;;;4947278;28;20058;-77
2022/12/24 03:05:52;;;;;;;9.18;5.07;;;10.40;99.90;;;;;;4957090;28;20046;-77
2022/12/24 03:08:35;;;;;;;8.02;4.80;;;10.20;99.90;;;;;;4932077;28;20047;-77
2022/12/24 03:11:09;;;;;;;7.93;5.40;;;10.20;99.90;;;;;;4958676;28;20053;-78
2022/12/24 03:13:38;;;;;;;6.72;4.30;;;10.10;99.90;;;;;;4967854;28;20050;-77
2022/12/24 03:16:09;;;;;;;6.85;4.95;;;10.00;99.90;;;;;;4964301;28;20429;-77
2022/12/24 03:18:41;;;;;;;6.60;4.75;;;10.10;99.90;;;;;;4967909;28;20043;-78
2022/12/24 03:21:17;;;;;;;10.82;5.22;;;10.10;99.90;;;;;;4966429;28;20417;-77
2022/12/24 03:23:45;;;;;;;7.05;5.38;;;10.10;99.90;;;;;;4955595;28;20066;-77
2022/12/24 03:26:16;;;;;;;8.40;5.82;;;10.00;99.90;;;;;;4967209;28;20054;-77
2022/12/24 03:28:44;;;;;;;10.52;7.15;;;10.00;99.90;;;;;;4956060;28;20398;-77
2022/12/24 03:31:12;;;;;;;10.73;6.25;;;10.00;99.90;;;;;;4951103;29;20126;-78
2022/12/24 03:33:40;;;;;;;10.35;7.60;;;10.00;99.90;;;;;;4955566;28;20133;-78
2022/12/24 03:36:08;;;;;;;11.20;7.70;;;10.10;99.90;;;;;;4956479;28;20039;-77
2022/12/24 03:38:36;;;;;;;9.73;7.65;;;10.10;99.90;;;;;;4951871;28;20041;-78
2022/12/24 03:41:05;;;;;;;8.38;7.15;;;10.10;99.90;;;;;;4962211;28;20524;-77
2022/12/24 03:43:33;;;;;;;8.98;6.88;;;10.00;99.90;;;;;;4967829;28;20061;-77
2022/12/24 03:46:06;;;;;;;9.60;6.00;;;9.80;99.90;;;;;;4955548;28;20039;-78
2022/12/24 03:48:34;;;;;;;7.72;5.60;;;9.80;99.90;;;;;;4949780;28;20078;-78
2022/12/24 03:51:02;;;;;;;8.25;5.53;;;9.80;99.90;;;;;;4965972;28;20047;-78
2022/12/24 03:53:30;;;;;;;8.18;6.03;;;9.70;99.90;;;;;;4966768;28;20623;-77
2022/12/24 03:55:58;;;;;;;12.43;7.45;;;9.70;99.90;;;;;;4943667;28;20050;-78
2022/12/24 03:58:25;;;;;;;12.52;8.18;;;9.70;99.90;;;;;;4967467;28;20110;-77
2022/12/24 04:00:53;;;;;;;18.00;10.43;;;9.60;99.90;;;;;;4951177;28;20051;-78
2022/12/24 04:03:20;;;;;;;12.23;9.27;;;9.70;99.90;;;;;;4967624;28;20051;-78
2022/12/24 04:06:06;;;;;;;13.48;9.57;;;9.70;99.90;;;;;;4959197;28;20050;-77
2022/12/24 04:08:34;;;;;;;11.70;8.70;;;9.70;99.90;;;;;;4969214;28;20051;-78
2022/12/24 04:11:04;;;;;;;12.43;9.02;;;9.70;99.90;;;;;;4971744;28;20051;-78
2022/12/24 04:13:35;;;;;;;14.30;8.38;;;9.70;99.90;;;;;;4974045;28;20043;-78
2022/12/24 04:16:08;;;;;;;13.23;8.50;;;9.60;99.90;;;;;;4964882;28;20050;-78
2022/12/24 04:18:37;;;;;;;13.02;8.73;;;9.50;99.90;;;;;;4956924;28;20054;-78
2022/12/24 04:21:05;;;;;;;15.02;10.00;;;9.40;99.90;;;;;;4974283;28;20043;-78
2022/12/24 04:23:34;;;;;;;13.05;9.13;;;9.40;99.90;;;;;;4973926;28;20397;-78
2022/12/24 04:26:04;;;;;;;13.65;9.18;;;9.40;99.90;;;;;;4965042;28;20054;-78
2022/12/24 04:28:32;;;;;;;19.27;12.02;;;9.40;99.90;;;;;;4956307;28;20050;-78
2022/12/24 04:31:02;;;;;;;14.95;9.93;;;9.40;99.90;;;;;;4972473;28;20050;-78
2022/12/24 04:33:30;;;;;;;14.82;10.30;;;9.40;99.90;;;;;;4956631;28;20133;-77
2022/12/24 04:35:59;;;;;;;14.07;8.95;;;9.40;99.90;;;;;;4962575;28;20134;-78
2022/12/24 04:38:27;;;;;;;14.70;10.13;;;9.40;99.90;;;;;;4954458;28;20051;-78
2022/12/24 04:41:06;;;;;;;14.85;9.93;;;9.40;99.90;;;;;;4953830;28;20051;-78
2022/12/24 04:43:34;;;;;;;17.58;9.77;;;9.40;99.90;;;;;;4954011;28;20055;-78
2022/12/24 04:46:10;;;;;;;14.82;9.32;;;9.50;99.90;;;;;;4960540;28;20066;-78
2022/12/24 04:48:37;;;;;;;8.35;6.80;;;9.50;99.90;;;;;;4952592;29;20055;-78
2022/12/24 04:51:06;;;;;;;13.98;8.77;;;9.50;99.90;;;;;;4952975;28;20528;-77
2022/12/24 04:53:34;;;;;;;13.98;8.75;;;9.60;99.90;;;;;;4936961;29;20051;-77
2022/12/24 04:56:03;;;;;;;14.48;9.35;;;9.60;99.90;;;;;;4959749;28;20103;-77
2022/12/24 04:58:30;;;;;;;13.23;7.72;;;9.70;99.90;;;;;;4952588;29;20074;-77
2022/12/24 05:01:06;;;;;;;11.43;7.97;;;9.70;99.90;;;;;;4956151;28;20047;-77
2022/12/24 05:03:34;;;;;;;14.02;7.57;;;9.80;99.90;;;;;;4936870;29;20158;-78
2022/12/24 05:06:03;;;;;;;11.07;7.65;;;9.80;99.90;;;;;;4959662;28;20520;-78
2022/12/24 05:08:32;;;;;;;13.15;8.52;;;9.70;99.90;;;;;;4954035;28;20095;-78
2022/12/24 05:11:00;;;;;;;12.20;7.75;;;9.70;99.90;;;;;;4952503;29;20050;-77
2022/12/24 05:13:28;;;;;;;13.80;7.60;;;9.70;99.90;;;;;;4951771;29;20098;-78
2022/12/24 05:16:00;;;;;;;12.05;7.70;;;9.60;99.90;;;;;;4959784;28;20489;-78
2022/12/24 05:18:28;;;;;;;10.05;7.28;;;9.60;99.90;;;;;;4952154;28;20403;-78
2022/12/24 05:20:55;;;;;;;15.02;8.07;;;9.60;99.90;;;;;;4953121;28;20043;-77
2022/12/24 05:26:24;;;;;;;12.15;7.18;;;9.70;99.90;;;;;;4963447;28;20042;-78
2022/12/24 05:28:54;;;;;;;11.27;7.28;;;9.80;99.90;;;;;;4971890;28;20122;-78
2022/12/24 05:31:23;;;;;;;13.25;8.80;;;9.80;99.90;;;;;;4970994;28;20055;-78
2022/12/24 05:33:53;;;;;;;10.88;7.22;;;9.80;99.90;;;;;;4970257;28;20111;-78
2022/12/24 05:36:22;;;;;;;13.07;7.00;;;9.80;99.90;;;;;;4955455;28;20055;-77
2022/12/24 05:38:51;;;;;;;12.77;9.35;;;9.80;99.90;;;;;;4952942;28;20047;-77
2022/12/24 05:41:18;;;;;;;19.67;11.57;;;9.80;99.90;;;;;;4935507;29;20082;-78
2022/12/24 05:43:46;;;;;;;15.27;10.55;;;9.90;99.90;;;;;;4964966;28;20051;-77
2022/12/24 05:46:17;;;;;;;15.13;8.52;;;9.90;99.90;;;;;;4965798;28;20050;-78
2022/12/24 05:48:46;;;;;;;11.70;7.47;;;9.90;99.90;;;;;;4972510;28;20075;-78
2022/12/24 05:51:18;;;;;;;12.07;7.78;;;9.90;99.90;;;;;;4970891;28;20107;-79
2022/12/24 05:53:46;;;;;;;9.95;7.38;;;9.90;99.90;;;;;;4970568;28;20050;-78
2022/12/24 05:56:17;;;;;;;12.40;8.18;;;9.90;99.90;;;;;;4963484;28;20053;-78
2022/12/24 05:58:45;;;;;;;12.38;7.63;;;9.80;99.90;;;;;;4954907;28;20046;-77
2022/12/24 06:01:13;;;;;;;13.77;8.48;;;9.80;99.90;;;;;;4955558;28;20058;-77
2022/12/24 06:03:41;;;;;;;14.57;8.00;;;9.90;99.90;;;;;;4970780;28;20093;-78
2022/12/24 06:06:14;;;;;;;11.68;9.15;;;9.80;99.90;;;;;;4963070;28;20047;-77
2022/12/24 06:08:42;;;;;;;11.50;7.45;;;9.80;99.90;;;;;;4970730;28;20098;-77
2022/12/24 06:11:11;;;;;;;9.88;6.82;;;9.80;99.90;;;;;;4972063;28;20059;-78
2022/12/24 06:13:40;;;;;;;8.27;6.07;;;9.90;99.90;;;;;;4971469;28;20039;-79
2022/12/24 06:16:12;;;;;;;10.38;6.85;;;9.90;99.90;;;;;;4959290;28;20397;-77
2022/12/24 06:18:40;;;;;;;12.52;7.20;;;9.90;99.90;;;;;;4951819;29;20040;-78
2022/12/24 06:21:08;;;;;;;12.82;7.07;;;9.90;99.90;;;;;;4951598;28;20102;-78
2022/12/24 06:23:38;;;;;;;10.45;7.28;;;10.00;99.90;;;;;;4934520;28;20066;-78
2022/12/24 06:26:07;;;;;;;12.07;7.85;;;10.10;99.90;;;;;;4960052;28;20071;-78
2022/12/24 06:28:36;;;;;;;7.82;6.13;;;10.20;99.90;;;;;;4951388;29;20047;-78
2022/12/24 06:31:06;;;;;;;12.35;7.53;;;10.30;99.90;;;;;;4950923;29;20047;-78
2022/12/24 06:33:34;;;;;;;9.85;6.68;;;10.50;99.90;;;;;;4950924;28;20532;-77
2022/12/24 06:36:06;;;;;;;10.07;6.15;;;10.60;99.90;;;;;;4966082;28;20122;-77
2022/12/24 06:38:36;;;;;;;10.88;7.05;;;10.70;99.90;;;;;;4970407;28;20130;-78
2022/12/24 06:41:06;;;;;;;8.68;6.13;;;10.90;99.90;;;;;;4971092;28;20055;-77
2022/12/24 06:43:34;;;;;;;8.55;6.68;;;11.20;99.90;;;;;;4954600;28;20397;-77
2022/12/24 06:46:02;;;;;;;10.10;6.60;;;11.50;99.90;;;;;;4964534;28;20436;-77
2022/12/24 06:48:30;;;;;;;9.88;6.65;;;11.60;99.90;;;;;;4954665;28;20070;-78
2022/12/24 06:51:00;;;;;;;9.38;6.25;;;11.80;99.90;;;;;;4971843;28;20043;-77
2022/12/24 06:53:27;;;;;;;12.48;8.60;;;12.30;99.90;;;;;;4970858;28;20043;-78
2022/12/24 06:56:02;;;;;;;9.20;6.63;;;13.00;99.90;;;;;;4965802;28;20073;-78
2022/12/24 06:58:30;;;;;;;9.93;7.20;;;13.30;99.90;;;;;;4971674;28;20058;-77
2022/12/24 07:01:01;;;;;;;18.45;10.25;;;13.80;99.90;;;;;;4970285;28;20490;-78
2022/12/24 07:03:29;;;;;;;8.32;6.03;;;14.80;99.90;;;;;;4968909;28;20129;-77
2022/12/24 07:05:57;;;;;;;7.13;5.82;;;14.80;99.90;;;;;;4963796;28;20054;-77
2022/12/24 07:08:26;;;;;;;9.57;6.00;;;14.70;99.90;;;;;;4970027;28;20588;-77
2022/12/24 07:10:53;;;;;;;10.43;6.93;;;14.80;99.90;;;;;;4971458;28;20043;-78
2022/12/24 07:13:21;;;;;;;8.70;5.75;;;15.20;99.90;;;;;;4969991;28;20047;-77
2022/12/24 07:15:57;;;;;;;7.88;5.35;;;15.80;99.90;;;;;;4966177;28;20074;-77
2022/12/24 07:18:25;;;;;;;9.55;5.80;;;16.10;99.90;;;;;;4971125;28;20085;-78
2022/12/24 07:20:52;;;;;;;12.07;8.40;;;16.50;99.90;;;;;;4971632;28;20049;-77
2022/12/24 07:23:20;;;;;;;9.90;5.78;;;17.30;99.90;;;;;;4970949;28;20043;-77
2022/12/24 07:25:47;;;;;;;11.48;6.63;;;17.30;99.90;;;;;;4966176;28;20046;-78
2022/12/24 07:28:15;;;;;;;8.43;5.65;;;17.20;99.90;;;;;;4970471;28;20082;-78
2022/12/24 07:30:43;;;;;;;10.23;6.13;;;17.30;99.90;;;;;;4969704;28;20050;-78
2022/12/24 07:33:11;;;;;;;10.68;7.63;;;17.50;99.90;;;;;;4968615;28;20062;-77
2022/12/24 07:35:38;;;;;;;12.95;7.80;;;18.00;99.90;;;;;;4968939;28;20137;-79
2022/12/24 07:38:05;;;;;;;11.88;6.78;;;18.70;99.90;;;;;;4952844;28;20043;-77
2022/12/24 07:40:33;;;;;;;10.30;6.30;;;18.60;99.90;;;;;;4969972;28;20090;-77
2022/12/24 07:43:01;;;;;;;9.85;5.93;;;18.80;99.90;;;;;;4969062;28;20047;-77
2022/12/24 07:45:28;;;;;;;10.23;5.80;;;18.50;99.90;;;;;;4962902;28;20498;-77
2022/12/24 07:47:56;;;;;;;9.32;6.47;;;18.10;99.90;;;;;;4937290;29;20055;-77
2022/12/24 07:50:23;;;;;;;8.05;5.78;;;18.00;99.90;;;;;;4937647;29;20147;-77
2022/12/24 07:52:52;;;;;;;11.60;7.95;;;17.90;99.90;;;;;;4953554;29;20146;-76
2022/12/24 07:55:19;;;;;;;10.70;7.65;;;17.90;99.90;;;;;;4957447;28;20126;-77
2022/12/24 07:57:47;;;;;;;13.02;7.32;;;18.10;99.90;;;;;;4978162;28;20457;-79
2022/12/24 08:00:15;;;;;;;9.48;6.82;;;18.10;99.90;;;;;;4966802;28;20046;-77
2022/12/24 08:02:42;;;;;;;7.95;6.22;;;18.10;99.90;;;;;;4960608;28;20491;-78
2022/12/24 08:05:10;;;;;;;9.13;7.00;;;18.20;99.90;;;;;;4966610;28;20035;-77
2022/12/24 08:07:37;;;;;;;10.30;6.90;;;18.50;99.90;;;;;;4960272;28;20047;-78
2022/12/24 08:10:05;;;;;;;9.48;6.32;;;18.30;99.90;;;;;;4972715;28;20046;-77
2022/12/24 08:12:33;;;;;;;9.63;6.43;;;18.00;99.90;;;;;;4989952;28;20579;-77
2022/12/24 08:15:00;;;;;;;9.25;6.88;;;17.60;99.90;;;;;;4984384;28;20062;-74
2022/12/24 08:17:28;;;;;;;9.98;7.15;;;17.50;99.90;;;;;;4969788;28;20068;-75
2022/12/24 08:19:58;;;;;;;10.43;6.75;;;17.50;99.90;;;;;;4964434;28;20171;-75
2022/12/24 08:22:25;;;;;;;9.27;6.28;;;17.40;99.90;;;;;;4961792;28;20058;-75
2022/12/24 08:24:53;;;;;;;10.82;6.55;;;17.60;99.90;;;;;;4960925;28;20051;-74
2022/12/24 08:27:20;;;;;;;8.63;7.00;;;17.70;99.90;;;;;;4967444;28;20105;-75
2022/12/24 08:29:48;;;;;;;13.35;9.98;;;17.90;99.90;;;;;;4970287;28;20141;-75
2022/12/24 08:32:16;;;;;;;10.80;8.02;;;18.10;99.90;;;;;;4975018;28;20058;-74
2022/12/24 08:34:44;;;;;;;12.93;7.72;;;18.10;99.90;;;;;;4942277;29;20054;-74
2022/12/24 08:37:11;;;;;;;12.90;8.45;;;18.00;99.90;;;;;;4960199;28;20043;-74
2022/12/24 08:39:38;;;;;;;9.18;6.38;;;17.90;99.90;;;;;;4961146;28;20051;-76
2022/12/24 08:42:06;;;;;;;12.32;6.30;;;17.50;99.90;;;;;;4988337;28;20073;-75
2022/12/24 08:44:33;;;;;;;10.75;6.88;;;17.50;99.90;;;;;;4971882;28;20510;-75
2022/12/24 08:47:01;;;;;;;9.40;6.80;;;17.50;99.90;;;;;;4963975;28;20134;-74
2022/12/24 08:49:28;;;;;;;10.98;7.68;;;17.30;99.90;;;;;;4966186;28;20641;-73
2022/12/24 08:51:57;;;;;;;8.20;5.45;;;17.30;99.90;;;;;;4977837;28;20042;-73
2022/12/24 08:54:24;;;;;;;8.18;6.30;;;17.10;99.90;;;;;;4968291;28;20093;-73
2022/12/24 08:56:51;;;;;;;7.95;5.60;;;17.10;99.90;;;;;;4968423;28;20051;-73
2022/12/24 08:59:19;;;;;;;10.00;7.38;;;17.20;99.90;;;;;;4973330;28;20421;-71
2022/12/24 09:01:47;;;;;;;7.50;5.07;;;17.20;99.90;;;;;;4972539;28;20392;-74
2022/12/24 09:04:14;;;;;;;9.45;5.22;;;17.20;99.90;;;;;;4971001;28;20073;-74
2022/12/24 09:06:42;;;;;;;6.15;4.82;;;17.30;99.90;;;;;;4969279;28;20053;-73
2022/12/24 09:09:09;;;;;;;9.35;4.00;;;17.30;99.90;;;;;;4972432;28;20065;-73
2022/12/24 09:11:37;;;;;;;7.18;5.03;;;17.20;99.90;;;;;;4971509;28;20054;-75
2022/12/24 09:14:04;;;;;;;6.50;3.97;;;17.50;99.90;;;;;;4972254;28;20047;-73
2022/12/24 09:16:32;;;;;;;8.68;4.20;;;17.60;99.90;;;;;;4969565;28;20031;-74
2022/12/24 09:18:59;;;;;;;27.45;16.02;;;17.80;99.90;;;;;;4971620;28;20430;-72
2022/12/24 09:21:27;;;;;;;16.13;8.23;;;18.00;99.90;;;;;;4971804;28;20055;-73
2022/12/24 09:23:55;;;;;;;9.77;6.38;;;17.90;99.90;;;;;;4972131;28;20039;-77
2022/12/24 09:26:24;;;;;;;7.90;4.45;;;18.10;99.90;;;;;;4963303;28;20102;-74
2022/12/24 09:28:52;;;;;;;11.13;4.45;;;18.10;99.90;;;;;;4936391;29;20059;-71
2022/12/24 09:31:20;;;;;;;7.32;4.50;;;18.30;99.90;;;;;;4953243;28;20075;-73
2022/12/24 09:33:49;;;;;;;7.82;4.70;;;18.30;99.90;;;;;;4953080;28;20057;-76
2022/12/24 09:36:18;;;;;;;10.05;5.00;;;18.30;99.90;;;;;;4955135;28;20350;-74
2022/12/24 09:38:50;;;;;;;14.27;6.07;;;18.40;99.90;;;;;;4937009;28;20093;-74
2022/12/24 09:41:21;;;;;;;9.18;5.28;;;18.30;99.90;;;;;;4970057;28;20038;-74
2022/12/24 09:43:55;;;;;;;8.15;4.78;;;18.70;99.90;;;;;;4970416;28;20485;-73
2022/12/24 09:46:36;;;;;;;7.85;4.88;;;19.00;99.90;;;;;;4971082;28;20047;-75
2022/12/24 09:49:12;;;;;;;9.10;5.10;;;19.20;99.90;;;;;;4972078;28;20043;-74
2022/12/24 09:51:56;;;;;;;9.20;6.07;;;19.40;99.90;;;;;;4971588;28;20047;-76
2022/12/24 09:54:31;;;;;;;11.30;8.00;;;19.50;99.90;;;;;;4971790;28;20053;-75
2022/12/24 09:57:05;;;;;;;11.68;6.47;;;19.20;99.90;;;;;;4968556;28;20109;-74
2022/12/24 09:59:43;;;;;;;12.52;6.80;;;19.20;99.90;;;;;;4970054;28;20047;-75
2022/12/24 10:02:14;;;;;;;15.13;8.25;;;19.30;99.90;;;;;;4971770;28;20130;-75
2022/12/24 10:04:43;;;;;;;17.60;8.95;;;18.70;99.90;;;;;;4954480;28;20053;-75
2022/12/24 10:07:48;;;;;;;13.05;9.75;;;18.40;99.90;;;;;;4967872;28;20134;-73
2022/12/24 10:10:22;;;;;;;21.08;13.57;;;18.30;99.90;;;;;;4970212;28;20538;-74
2022/12/24 10:13:14;;;;;;;20.67;14.45;;;18.20;99.90;;;;;;4971697;28;20047;-75
2022/12/24 10:16:18;;;;;;;10.27;7.07;;;18.10;99.90;;;;;;4967619;28;20413;-74
2022/12/24 10:19:01;;;;;;;7.90;4.97;;;18.20;99.90;;;;;;4951825;28;20106;-74
2022/12/24 10:22:06;;;;;;;15.07;5.28;;;18.30;99.90;;;;;;4951788;28;20039;-73
2022/12/24 10:24:43;;;;;;;8.30;5.18;;;18.30;99.90;;;;;;4950277;29;20143;-74
2022/12/24 10:27:17;;;;;;;8.93;6.22;;;18.30;99.90;;;;;;4948933;28;20050;-74
2022/12/24 10:30:03;;;;;;;8.60;5.40;;;18.30;99.90;;;;;;4969752;28;20047;-74
2022/12/24 10:32:33;;;;;;;6.57;5.25;;;18.20;99.90;;;;;;4969343;28;20070;-75
2022/12/24 10:35:21;;;;;;;9.50;5.75;;;17.90;99.90;;;;;;4969464;28;20046;-75
2022/12/24 10:37:51;;;;;;;7.32;4.70;;;17.90;99.90;;;;;;4968873;28;20098;-75
2022/12/24 10:40:19;;;;;;;9.27;4.78;;;18.30;99.90;;;;;;4953565;28;20043;-74
2022/12/24 10:42:46;;;;;;;8.35;4.97;;;18.50;99.90;;;;;;4970769;28;20125;-74
2022/12/24 10:45:20;;;;;;;10.13;5.07;;;18.70;99.90;;;;;;4970822;28;20058;-74
2022/12/24 10:47:53;;;;;;;7.10;4.40;;;18.90;99.90;;;;;;4951206;28;20055;-74
2022/12/24 10:50:41;;;;;;;6.95;4.72;;;19.00;99.90;;;;;;4969508;28;20057;-72
2022/12/24 10:53:40;;;;;;;6.32;4.20;;;19.00;99.90;;;;;;4970524;28;20054;-75
2022/12/24 10:56:12;;;;;;;6.85;4.65;;;18.90;99.90;;;;;;4967705;28;20459;-75
2022/12/24 10:58:49;;;;;;;7.28;5.47;;;19.00;99.90;;;;;;4965996;28;20039;-74
2022/12/24 11:01:17;;;;;;;9.70;4.20;;;19.10;99.90;;;;;;4953196;28;20043;-74
2022/12/24 11:03:44;;;;;;;7.25;4.28;;;18.50;99.90;;;;;;4968712;28;20043;-74
2022/12/24 11:06:15;;;;;;;5.10;3.35;;;18.50;99.90;;;;;;4968116;28;20065;-77
2022/12/24 11:08:44;;;;;;;6.28;4.25;;;18.30;99.90;;;;;;4952994;28;20238;-74
2022/12/24 11:11:18;;;;;;;5.90;4.00;;;17.90;99.90;;;;;;4970796;28;20505;-74
2022/12/24 11:13:56;;;;;;;7.85;4.65;;;18.00;99.90;;;;;;4968807;28;20146;-74
2022/12/24 11:16:32;;;;;;;7.93;4.25;;;18.10;99.90;;;;;;4966591;28;20051;-78
2022/12/24 11:19:02;;;;;;;5.70;3.63;;;18.10;99.90;;;;;;4969633;28;20043;-74
2022/12/24 11:21:39;;;;;;;7.25;4.75;;;18.30;99.90;;;;;;4968470;28;20154;-75
2022/12/24 11:24:12;;;;;;;6.32;4.70;;;18.40;99.90;;;;;;4970397;28;20051;-74
2022/12/24 11:26:42;;;;;;;8.18;4.22;;;18.70;99.90;;;;;;4967172;28;20050;-75
2022/12/24 11:29:19;;;;;;;7.53;4.85;;;18.90;99.90;;;;;;4953018;28;20058;-74
2022/12/24 11:31:47;;;;;;;9.30;6.47;;;19.00;99.90;;;;;;4954370;28;20079;-79
2022/12/24 11:34:27;;;;;;;6.70;4.28;;;19.10;99.90;;;;;;4950952;28;20051;-73
2022/12/24 11:37:25;;;;;;;8.68;3.30;;;19.00;99.90;;;;;;4951538;28;20047;-74
2022/12/24 11:39:56;;;;;;;7.95;6.00;;;18.70;99.90;;;;;;4968278;28;20046;-74
2022/12/24 11:42:35;;;;;;;9.88;4.75;;;18.60;99.90;;;;;;4969657;28;20039;-73
2022/12/24 11:45:27;;;;;;;6.90;4.97;;;18.70;99.90;;;;;;4968324;28;20134;-74
2022/12/24 11:47:55;;;;;;;9.15;5.35;;;18.70;99.90;;;;;;4957407;28;20174;-74
2022/12/24 11:50:31;;;;;;;5.28;4.22;;;18.50;99.90;;;;;;4969641;28;20054;-74
2022/12/24 11:53:02;;;;;;;8.00;5.50;;;18.40;99.90;;;;;;4953164;28;20140;-74
2022/12/24 11:55:33;;;;;;;6.45;4.35;;;18.30;99.90;;;;;;4968752;28;20424;-74
2022/12/24 11:58:12;;;;;;;8.30;4.80;;;18.30;99.90;;;;;;4965633;28;20070;-75
2022/12/24 12:00:41;;;;;;;6.43;4.43;;;18.10;99.90;;;;;;4952481;28;20085;-74
2022/12/24 12:03:22;;;;;;;8.50;6.32;;;18.10;99.90;;;;;;4952509;28;20175;-74
2022/12/24 12:05:51;;;;;;;7.25;4.88;;;17.90;99.90;;;;;;4967818;28;20093;-75
2022/12/24 12:08:21;;;;;;;10.40;5.55;;;17.90;99.90;;;;;;4969435;28;20051;-75
2022/12/24 12:10:51;;;;;;;6.25;5.20;;;18.00;99.90;;;;;;4970438;28;20051;-74
2022/12/24 12:13:25;;;;;;;8.73;6.43;;;18.10;99.90;;;;;;4969943;28;20577;-73
2022/12/24 12:16:59;;;;;;;10.60;7.43;;;18.30;99.90;;;;;;4968795;28;20085;-75
2022/12/24 12:19:24;;;;;;;8.85;5.38;;;18.50;99.90;;;;;;4950756;28;20075;-75
2022/12/24 12:21:51;;;;;;;7.38;5.32;;;18.50;99.90;;;;;;4950405;28;20413;-75
2022/12/24 12:24:33;;;;;;;9.90;5.35;;;18.50;99.90;;;;;;4932901;29;20424;-74
2022/12/24 12:27:31;;;;;;;11.18;6.05;;;18.50;99.90;;;;;;4951428;28;20118;-73
2022/12/24 12:30:10;;;;;;;8.82;6.00;;;18.20;99.90;;;;;;4949038;28;20065;-74
2022/12/24 12:33:10;;;;;;;8.20;5.65;;;18.20;99.90;;;;;;4952661;28;20151;-75
2022/12/24 12:35:42;;;;;;;8.32;5.75;;;18.20;99.90;;;;;;4953194;29;20047;-75
2022/12/24 12:38:19;;;;;;;6.50;5.07;;;18.10;99.90;;;;;;4954460;28;20477;-75
2022/12/24 12:41:24;;;;;;;6.07;4.10;;;18.20;99.90;;;;;;4958867;28;20185;-75
2022/12/24 12:44:30;;;;;;;8.13;5.68;;;18.20;99.90;;;;;;4970977;28;20405;-74
2022/12/24 12:47:01;;;;;;;7.35;4.85;;;18.40;99.90;;;;;;4956190;28;20071;-77
2022/12/24 12:50:02;;;;;;;6.88;4.57;;;18.50;99.90;;;;;;4953002;28;20051;-76
2022/12/24 12:52:44;;;;;;;5.25;4.40;;;18.50;99.90;;;;;;4952660;29;20042;-74
2022/12/24 12:55:21;;;;;;;6.03;4.38;;;18.40;99.90;;;;;;4952479;29;20057;-74
2022/12/24 12:57:56;;;;;;;6.50;4.68;;;18.50;99.90;;;;;;4967208;28;20046;-75
2022/12/24 13:00:25;;;;;;;7.50;4.65;;;18.40;99.90;;;;;;4972965;28;20043;-74
2022/12/24 13:03:21;;;;;;;7.85;4.00;;;18.30;99.90;;;;;;4972534;28;20042;-74
2022/12/24 13:06:22;;;;;;;7.28;4.55;;;18.20;99.90;;;;;;4955208;28;20046;-74
2022/12/24 13:09:07;;;;;;;6.50;4.05;;;18.20;99.90;;;;;;4972956;28;20074;-73
2022/12/24 13:12:02;;;;;;;10.48;5.53;;;18.30;99.90;;;;;;4972703;28;20043;-73
2022/12/24 13:14:42;;;;;;;10.63;6.15;;;18.40;99.90;;;;;;4971160;28;20062;-77
2022/12/24 13:17:34;;;;;;;8.65;5.65;;;18.30;99.90;;;;;;4970256;28;20204;-73